Burley, ID

2:45 PM MDT on October 25, 2014 (GMT -0600)
Joslin Field-Magic Valley Regional | Change Station
CLOSE
Current Station
Airport
Location: Twin Falls,
Elevation: 4150 ft
Nearby Weather Stations
Active Advisory: Special Statement

Elev 4150 ft 42.48 °N, 114.49 °W | Updated 52 minutes ago

Clear
Clear
78 °F
Feels Like 78 °F
N
16
Wind Variable Wind from South
Gusts 28 mph

Today
High -- | Low -- °F
--% Chance of Precip.
Yesterday
High -- | Low -- °F
Precip. -- in
8:00 AM 6:37 PM
Waxing Crescent, 4% visible
Pressure 29.73 in
Visibility 10.0 miles
Clouds Clear
Dew Point 28 °F
Humidity 16%
Rainfall 0.00 in
Snow Depth Not available.
UV 4 out of 12
Pollen 3.20 out of 12
Air Quality Not available.
Flu Activity No Activity
METAR KTWF 251953Z 18014G24KT 10SM -RA CLR 26/M02 A2987 RMK AO2 PK WND 17027/1902 RAE13B45 SLP065 P0000 T02561022

More Conditions Fewer Conditions

Pressure 29.73 in
Visibility 10.0 miles
Clouds Clear
Dew Point 28 °F
Humidity 16%
Rainfall 0.00 in
Snow Depth Not available.
UV 4 out of 12
Pollen 3.20 out of 12
Air Quality Not available.
Flu Activity No Activity
METAR KTWF 251953Z 18014G24KT 10SM -RA CLR 26/M02 A2987 RMK AO2 PK WND 17027/1902 RAE13B45 SLP065 P0000 T02561022

More Conditions Fewer Conditions

10-Day Weather Forecast

Almanac

Astronomy

Oct. 25, 2014 Rise Set
Actual Time 8:00 AM MDT 6:37 PM MDT
Civil Twilight 7:31 AM MDT 7:06 PM MDT
Nautical Twilight 6:58 AM MDT 7:39 PM MDT
Astronomical Twilight 6:25 AM MDT 8:11 PM MDT
Moon 9:44 AM MDT 8:01 PM MDT
Length of Visible Light 11h 35m
Length of Day
10h 37m
Tomorrow will be 2m 39s shorter.
Waxing Crescent, 4% of the Moon is Illuminated
Today
Waxing Crescent
Oct 30
First Quarter
Nov 6
Full
Nov 14
Last Quarter
Nov 22
New

Today's Extremes

State Highs State Lows

Community

WunderPhotos

Upload Photos

1,764,989 photos uploaded!

Nearby

Snow Depth

Station Depth Elevation
Magic Mountain 0 in 6880 ft
Wildhorse Divide 1 in 6490 ft
Wilson Creek 0 in 7120 ft
Swede Peak 0 in 7640 ft
Bear Canyon 0 in 7900 ft

Earthquake Activity

City Distance Mag. Time & Date
No recent earthquake activity has been reported nearby.
Minimum magnitude displayed is 2.5.

Coastal Water Temperatures

Place Temperature
No Stations Reporting

Nearby Weather Stations